createdAt,value
2024-04-23T00:01:08.822Z,99742.19
2024-04-23T00:03:48.956Z,99736.72
2024-04-23T00:06:17.488Z,99734.81
2024-04-23T00:08:56.496Z,99722.97
2024-04-23T00:11:29.633Z,99713.03
2024-04-23T00:14:17.662Z,99721.69
2024-04-23T00:16:45.984Z,99723.59
2024-04-23T00:19:24.418Z,99720.75
2024-04-23T00:21:52.450Z,99720.91
2024-04-23T00:24:24.764Z,99728.91
2024-04-23T00:27:02.021Z,99723.59
2024-04-23T00:29:48.823Z,99726.25
2024-04-23T00:32:17.042Z,99733.00
2024-04-23T00:34:49.857Z,99729.13
2024-04-23T00:37:18.698Z,99730.91
2024-04-23T00:39:59.452Z,99725.94
2024-04-23T00:42:28.853Z,99722.69
2024-04-23T00:45:14.435Z,99718.75
2024-04-23T00:47:41.912Z,99709.13
2024-04-23T00:50:17.416Z,99702.75
2024-04-23T00:52:46.693Z,99700.00
2024-04-23T00:55:22.274Z,99694.91
2024-04-23T00:57:51.416Z,99699.34
2024-04-23T01:00:35.884Z,99696.44
2024-04-23T01:03:14.529Z,99689.25
2024-04-23T01:05:46.687Z,99690.63
2024-04-23T01:08:18.610Z,99687.56
2024-04-23T01:10:56.326Z,99681.09
2024-04-23T01:13:26.933Z,99682.34
2024-04-23T01:16:06.485Z,99688.59
2024-04-23T01:18:35.887Z,99692.94
2024-04-23T01:21:16.291Z,99692.66
2024-04-23T01:23:49.996Z,99693.34
2024-04-23T01:26:42.211Z,99695.25
2024-04-23T01:29:11.462Z,99694.31
2024-04-23T01:31:52.089Z,99697.94
2024-04-23T01:34:24.245Z,99688.19
2024-04-23T01:36:56.842Z,99690.09
2024-04-23T01:39:27.301Z,99681.44
2024-04-23T01:42:03.596Z,99676.56
2024-04-23T01:44:31.813Z,99680.47
2024-04-23T01:47:01.867Z,99674.25
2024-04-23T01:49:30.712Z,99671.19
2024-04-23T01:52:08.608Z,99660.16
2024-04-23T01:54:39.404Z,99661.00
2024-04-23T01:57:28.875Z,99657.09
2024-04-23T01:59:59.819Z,99661.44
2024-04-23T02:02:33.077Z,99662.69
2024-04-23T02:05:05.041Z,99660.28
2024-04-23T02:07:45.862Z,99658.66
2024-04-23T02:10:13.781Z,99658.69
2024-04-23T02:13:01.659Z,99661.41
2024-04-23T02:15:33.684Z,99654.72
2024-04-23T02:18:06.099Z,99656.22
2024-04-23T02:20:36.829Z,99651.34
2024-04-23T02:23:17.868Z,99655.44
2024-04-23T02:25:49.406Z,99644.75
2024-04-23T02:28:26.596Z,99634.88
2024-04-23T02:30:58.499Z,99625.94
2024-04-23T02:33:39.870Z,99628.03
2024-04-23T02:36:09.288Z,99629.94
2024-04-23T02:38:41.539Z,99628.91
2024-04-23T02:41:10.894Z,99627.28
2024-04-23T02:43:48.596Z,99628.25
2024-04-23T02:46:26.452Z,99627.72
2024-04-23T02:49:05.879Z,99619.88
2024-04-23T02:51:34.734Z,99629.63
2024-04-23T02:54:15.322Z,99629.72
2024-04-23T02:56:44.740Z,99627.28
2024-04-23T02:59:22.123Z,99627.38
2024-04-23T03:02:01.206Z,99626.97
2024-04-23T03:04:50.229Z,99635.22
2024-04-23T03:07:24.893Z,99638.41
2024-04-23T03:09:53.167Z,99643.69
2024-04-23T03:12:32.737Z,99646.56
2024-04-23T03:15:11.313Z,99646.75
2024-04-23T03:17:46.521Z,99648.00
2024-04-23T03:20:15.331Z,99642.22
2024-04-23T03:22:45.332Z,99640.19
2024-04-23T03:25:15.985Z,99635.00
2024-04-23T03:27:55.984Z,99632.16
2024-04-23T03:30:28.920Z,99637.41
2024-04-23T03:33:02.870Z,99637.75
2024-04-23T03:35:32.038Z,99625.59
2024-04-23T03:38:07.716Z,99621.91
2024-04-23T03:40:41.647Z,99620.38
2024-04-23T03:43:15.066Z,99611.94
2024-04-23T03:45:59.478Z,99621.69
2024-04-23T03:48:30.727Z,99630.75
2024-04-23T03:50:59.439Z,99625.66
2024-04-23T03:53:34.096Z,99621.66
2024-04-23T03:56:04.358Z,99621.44
2024-04-23T03:58:45.494Z,99611.19
2024-04-23T04:01:19.059Z,99604.94
2024-04-23T04:04:07.618Z,99610.31
2024-04-23T04:06:43.270Z,99618.50
2024-04-23T04:09:28.256Z,99618.91
2024-04-23T04:12:15.618Z,99620.28
2024-04-23T04:14:50.622Z,99618.72
2024-04-23T04:17:29.288Z,99615.94
2024-04-23T04:20:08.714Z,99616.50
2024-04-23T04:22:43.489Z,99618.03
2024-04-23T04:25:14.867Z,99614.78
2024-04-23T04:27:45.628Z,99620.69
2024-04-23T04:30:14.588Z,99614.41
2024-04-23T04:32:59.763Z,99613.13
2024-04-23T04:35:28.550Z,99612.41
2024-04-23T04:38:07.052Z,99611.53
2024-04-23T04:40:46.287Z,99606.56
2024-04-23T04:43:25.034Z,99609.66
2024-04-23T04:45:52.900Z,99619.66
2024-04-23T04:48:30.018Z,99616.72
2024-04-23T04:50:59.505Z,99622.44
2024-04-23T04:53:32.814Z,99621.00
2024-04-23T04:56:01.175Z,99617.88
2024-04-23T04:58:41.254Z,99622.19
2024-04-23T05:01:11.137Z,99620.47
2024-04-23T05:06:51.474Z,99617.50
2024-04-23T05:09:33.788Z,99631.81
2024-04-23T05:12:01.968Z,99625.97
2024-04-23T05:14:35.667Z,99626.53
2024-04-23T05:17:04.068Z,99626.53
2024-04-23T05:19:49.714Z,99629.56
2024-04-23T05:22:19.221Z,99619.41
2024-04-23T05:24:57.325Z,99628.31
2024-04-23T05:27:26.420Z,99630.53
2024-04-23T05:30:06.025Z,99636.59
2024-04-23T05:32:54.704Z,99636.13
2024-04-23T05:35:38.518Z,99639.31
2024-04-23T05:38:26.326Z,99642.16
2024-04-23T05:41:04.357Z,99641.00
2024-04-23T05:43:43.044Z,99635.56
2024-04-23T05:46:18.434Z,99627.91
2024-04-23T05:49:31.284Z,99626.31
2024-04-23T05:53:06.775Z,99642.28
2024-04-23T05:56:05.173Z,99630.38
2024-04-23T05:58:34.371Z,99640.84
2024-04-23T06:01:06.817Z,99632.16
2024-04-23T06:03:44.856Z,99641.47
2024-04-23T06:06:24.021Z,99644.72
2024-04-23T06:08:56.288Z,99637.34
2024-04-23T06:11:36.707Z,99645.47
2024-04-23T06:14:16.550Z,99637.59
2024-04-23T06:16:55.730Z,99640.81
2024-04-23T06:19:41.982Z,99630.06
2024-04-23T06:22:21.610Z,99646.28
2024-04-23T06:24:55.991Z,99642.81
2024-04-23T06:27:34.929Z,99639.66
2024-04-23T06:30:12.009Z,99640.53
2024-04-23T06:32:52.641Z,99630.06
2024-04-23T06:35:21.854Z,99630.78
2024-04-23T06:37:57.693Z,99627.50
2024-04-23T06:40:29.067Z,99622.44
2024-04-23T06:43:07.816Z,99616.91
2024-04-23T06:45:44.273Z,99621.22
2024-04-23T06:48:17.286Z,99623.66
2024-04-23T06:50:50.018Z,99622.16
2024-04-23T06:53:18.010Z,99622.56
2024-04-23T06:55:59.935Z,99617.66
2024-04-23T06:58:38.678Z,99615.38
2024-04-23T07:01:10.414Z,99623.34
2024-04-23T07:03:42.784Z,99610.34
2024-04-23T07:06:11.546Z,99610.47
2024-04-23T07:08:53.560Z,99604.00
2024-04-23T07:11:26.710Z,99602.69
2024-04-23T07:14:04.974Z,99590.47
2024-04-23T07:16:46.671Z,99591.09
2024-04-23T07:19:15.064Z,99592.25
2024-04-23T07:21:55.105Z,99597.94
2024-04-23T07:24:24.446Z,99590.25
2024-04-23T07:27:05.060Z,99584.91
2024-04-23T07:29:36.515Z,99577.44
2024-04-23T07:32:17.633Z,99574.28
2024-04-23T07:34:48.370Z,99571.97
2024-04-23T07:37:18.635Z,99566.84
2024-04-23T07:39:47.222Z,99560.16
2024-04-23T07:42:28.080Z,99570.38
2024-04-23T07:45:02.430Z,99576.31
2024-04-23T07:47:43.817Z,99561.16
2024-04-23T07:50:13.156Z,99550.91
2024-04-23T07:52:52.117Z,99556.59
2024-04-23T07:55:20.188Z,99563.63
2024-04-23T07:57:54.716Z,99555.84
2024-04-23T08:00:35.794Z,99544.75
2024-04-23T08:03:14.967Z,99548.50
2024-04-23T08:05:45.508Z,99548.19
2024-04-23T08:08:19.377Z,99539.72
2024-04-23T08:10:48.537Z,99542.09
2024-04-23T08:13:32.085Z,99535.34
2024-04-23T08:16:02.986Z,99536.13
2024-04-23T08:18:42.215Z,99541.19
2024-04-23T08:21:11.699Z,99542.91
2024-04-23T08:23:52.585Z,99534.84
2024-04-23T08:26:21.548Z,99542.28
2024-04-23T08:29:00.979Z,99540.00
2024-04-23T08:31:38.688Z,99541.94
2024-04-23T08:34:09.499Z,99530.84
2024-04-23T08:36:42.167Z,99536.28
2024-04-23T08:39:10.559Z,99528.94
2024-04-23T08:41:49.397Z,99526.84
2024-04-23T08:44:22.565Z,99526.25
2024-04-23T08:47:10.492Z,99524.00
2024-04-23T08:49:40.991Z,99532.31
2024-04-23T08:52:17.226Z,99521.94
2024-04-23T08:54:44.949Z,99518.56
2024-04-23T08:57:20.401Z,99524.31
2024-04-23T08:59:51.922Z,99531.56
2024-04-23T09:02:35.861Z,99525.31
2024-04-23T09:05:09.014Z,99522.91
2024-04-23T09:07:48.589Z,99519.63
2024-04-23T09:10:16.463Z,99520.25
2024-04-23T09:12:48.817Z,99512.41
2024-04-23T09:15:17.481Z,99510.59
2024-04-23T09:18:01.130Z,99508.88
2024-04-23T09:20:32.308Z,99507.69
2024-04-23T09:23:06.386Z,99511.69
2024-04-23T09:25:36.044Z,99495.44
2024-04-23T09:28:11.467Z,99496.63
2024-04-23T09:30:41.354Z,99494.69
2024-04-23T09:33:30.988Z,99491.91
2024-04-23T09:36:07.982Z,99489.81
2024-04-23T09:38:49.115Z,99491.03
2024-04-23T09:41:18.069Z,99485.38
2024-04-23T09:43:58.242Z,99478.41
2024-04-23T09:46:34.984Z,99474.97
2024-04-23T09:49:12.937Z,99473.13
2024-04-23T09:51:41.434Z,99466.16
2024-04-23T09:54:19.440Z,99470.00
2024-04-23T09:56:47.932Z,99468.97
2024-04-23T09:59:19.299Z,99466.13
2024-04-23T10:01:49.407Z,99455.69
2024-04-23T10:04:30.280Z,99466.31
2024-04-23T10:07:06.031Z,99449.63
2024-04-23T10:09:44.400Z,99457.97
2024-04-23T10:12:15.901Z,99459.50
2024-04-23T10:14:54.828Z,99449.22
2024-04-23T10:17:32.713Z,99453.78
2024-04-23T10:20:08.785Z,99443.78
2024-04-23T10:22:38.503Z,99438.13
2024-04-23T10:25:11.973Z,99431.41
2024-04-23T10:27:42.747Z,99429.59
2024-04-23T10:30:23.566Z,99435.28
2024-04-23T10:32:52.735Z,99431.84
2024-04-23T10:35:27.461Z,99427.97
2024-04-23T10:38:03.951Z,99423.81
2024-04-23T10:40:43.616Z,99424.44
2024-04-23T10:43:18.889Z,99429.78
2024-04-23T10:46:01.143Z,99418.44
2024-04-23T10:48:39.415Z,99423.25
2024-04-23T10:51:27.231Z,99413.53
2024-04-23T10:54:00.623Z,99409.53
2024-04-23T10:56:31.435Z,99399.81
2024-04-23T10:59:08.888Z,99410.03
2024-04-23T11:01:48.549Z,99396.38
2024-04-23T11:04:28.556Z,99393.41
2024-04-23T11:07:06.024Z,99388.16
2024-04-23T11:09:54.715Z,99388.97
2024-04-23T11:12:26.583Z,99380.19
2024-04-23T11:15:09.582Z,99366.41
2024-04-23T11:17:41.970Z,99366.28
2024-04-23T11:20:17.093Z,99359.84
2024-04-23T11:23:00.943Z,99358.81
2024-04-23T11:25:41.017Z,99349.72
2024-04-23T11:28:13.800Z,99345.19
2024-04-23T11:30:52.489Z,99352.13
2024-04-23T11:33:21.684Z,99340.28
2024-04-23T11:35:59.492Z,99342.75
2024-04-23T11:38:47.998Z,99340.88
2024-04-23T11:41:19.597Z,99342.25
2024-04-23T11:43:52.189Z,99341.88
2024-04-23T11:46:21.115Z,99347.00
2024-04-23T11:48:57.139Z,99331.59
2024-04-23T11:51:25.712Z,99323.97
2024-04-23T11:54:06.389Z,99315.25
2024-04-23T11:56:36.190Z,99314.09
2024-04-23T11:59:10.979Z,99319.88
2024-04-23T12:01:39.492Z,99309.88
2024-04-23T12:04:11.686Z,99311.66
2024-04-23T12:06:41.315Z,99325.59
2024-04-23T12:09:19.195Z,99312.50
2024-04-23T12:11:48.175Z,99308.06
2024-04-23T12:14:26.755Z,99314.31
2024-04-23T12:16:58.630Z,99309.53
2024-04-23T12:19:41.265Z,99293.94
2024-04-23T12:22:26.676Z,99290.13
2024-04-23T12:25:05.484Z,99286.38
2024-04-23T12:27:48.064Z,99289.88
2024-04-23T12:30:20.759Z,99291.53
2024-04-23T12:32:56.690Z,99275.97
2024-04-23T12:35:26.557Z,99272.13
2024-04-23T12:38:05.648Z,99268.59
2024-04-23T12:40:36.427Z,99265.66
2024-04-23T12:43:16.200Z,99265.03
2024-04-23T12:45:47.077Z,99263.00
2024-04-23T12:48:26.788Z,99263.19
2024-04-23T12:51:03.225Z,99256.31
2024-04-23T12:53:41.826Z,99255.91
2024-04-23T12:56:29.921Z,99251.72
2024-04-23T12:58:58.722Z,99236.31
2024-04-23T13:01:42.111Z,99244.34
2024-04-23T13:04:13.559Z,99235.94
2024-04-23T13:06:51.958Z,99233.41
2024-04-23T13:09:21.880Z,99237.59
2024-04-23T13:12:11.658Z,99233.41
2024-04-23T13:14:40.937Z,99220.53
2024-04-23T13:17:21.937Z,99216.75
2024-04-23T13:19:50.754Z,99219.56
2024-04-23T13:22:28.801Z,99222.50
2024-04-23T13:24:59.029Z,99219.69
2024-04-23T13:27:43.184Z,99213.81
2024-04-23T13:30:12.940Z,99217.03
2024-04-23T13:32:51.413Z,99213.13
2024-04-23T13:35:21.249Z,99216.88
2024-04-23T13:37:53.261Z,99201.63
2024-04-23T13:40:22.582Z,99201.63
2024-04-23T13:43:10.730Z,99193.69
2024-04-23T13:45:41.708Z,99198.97
2024-04-23T13:48:16.267Z,99194.50
2024-04-23T13:50:44.449Z,99187.63
2024-04-23T13:53:23.302Z,99187.50
2024-04-23T13:55:53.977Z,99189.03
2024-04-23T13:58:28.776Z,99182.16
2024-04-23T14:01:05.471Z,99177.84
2024-04-23T14:03:37.626Z,99174.06
2024-04-23T14:06:15.994Z,99167.22
2024-04-23T14:08:58.520Z,99155.59
2024-04-23T14:11:28.905Z,99154.06
2024-04-23T14:14:04.714Z,99158.38
2024-04-23T14:16:35.657Z,99150.25
2024-04-23T14:19:04.816Z,99151.97
2024-04-23T14:21:42.407Z,99155.03
2024-04-23T14:24:14.410Z,99153.38
2024-04-23T14:26:49.726Z,99151.13
2024-04-23T14:29:21.053Z,99144.53
2024-04-23T14:31:51.931Z,99141.34
2024-04-23T14:34:21.174Z,99142.88
2024-04-23T14:36:59.743Z,99137.13
2024-04-23T14:39:35.782Z,99135.31
2024-04-23T14:42:13.726Z,99123.13
2024-04-23T14:44:47.622Z,99124.25
2024-04-23T14:47:27.940Z,99130.53
2024-04-23T14:49:57.607Z,99110.53
2024-04-23T14:52:35.763Z,99106.50
2024-04-23T14:55:03.645Z,99112.09
2024-04-23T14:57:35.197Z,99110.97
2024-04-23T15:00:18.692Z,99107.59
2024-04-23T15:02:50.454Z,99107.72
2024-04-23T15:05:21.230Z,99109.81
2024-04-23T15:07:57.137Z,99100.59
2024-04-23T15:10:28.487Z,99103.00
2024-04-23T15:13:03.245Z,99091.63
2024-04-23T15:15:44.885Z,99091.06
2024-04-23T15:18:19.283Z,99088.94
2024-04-23T15:20:47.936Z,99080.59
2024-04-23T15:23:29.601Z,99090.81
2024-04-23T15:26:01.575Z,99088.97
2024-04-23T15:28:37.037Z,99083.25
2024-04-23T15:31:21.364Z,99084.78
2024-04-23T15:33:56.462Z,99085.47
2024-04-23T15:36:31.178Z,99090.09
2024-04-23T15:39:09.750Z,99074.84
2024-04-23T15:41:41.807Z,99060.59
2024-04-23T15:44:15.065Z,99065.75
2024-04-23T15:46:56.558Z,99060.97
2024-04-23T15:49:31.588Z,99050.34
2024-04-23T15:52:01.023Z,99050.47
2024-04-23T15:54:34.550Z,99041.94
2024-04-23T15:57:14.377Z,99036.75
2024-04-23T15:59:53.967Z,99032.44
2024-04-23T16:02:28.331Z,99028.78
2024-04-23T16:05:08.029Z,99028.78
2024-04-23T16:07:39.550Z,99025.69
2024-04-23T16:10:20.808Z,99023.88
2024-04-23T16:12:48.544Z,99020.88
2024-04-23T16:15:22.886Z,99004.97
2024-04-23T16:17:57.509Z,99006.44
2024-04-23T16:20:36.847Z,99009.16
2024-04-23T16:23:04.685Z,99015.72
2024-04-23T16:25:36.537Z,99008.53
2024-04-23T16:28:05.696Z,99011.47
2024-04-23T16:30:45.303Z,99003.69
2024-04-23T16:33:22.220Z,99004.63
2024-04-23T16:36:04.717Z,99005.06
2024-04-23T16:38:33.991Z,99010.59
2024-04-23T16:41:13.003Z,99001.38
2024-04-23T16:43:58.292Z,99012.53
2024-04-23T16:46:39.834Z,99008.03
2024-04-23T16:49:11.332Z,99014.44
2024-04-23T16:51:52.058Z,99007.66
2024-04-23T16:54:22.414Z,99009.72
2024-04-23T16:57:01.356Z,98998.50
2024-04-23T16:59:31.029Z,98992.25
2024-04-23T17:02:09.739Z,99000.38
2024-04-23T17:04:50.068Z,98999.78
2024-04-23T17:07:32.842Z,99003.19
2024-04-23T17:10:02.308Z,99004.91
2024-04-23T17:12:42.472Z,99012.28
2024-04-23T17:15:11.078Z,98997.56
2024-04-23T17:17:52.415Z,98997.97
2024-04-23T17:20:37.782Z,98993.50
2024-04-23T17:23:07.163Z,99003.47
2024-04-23T17:25:44.108Z,99004.97
2024-04-23T17:28:12.915Z,99004.59
2024-04-23T17:30:52.294Z,98994.81
2024-04-23T17:33:24.552Z,98990.22
2024-04-23T17:36:20.500Z,98991.56
2024-04-23T17:38:49.059Z,98985.28
2024-04-23T17:41:31.782Z,98984.63
2024-04-23T17:44:01.203Z,98983.34
2024-04-23T17:46:43.132Z,98982.34
2024-04-23T17:49:17.297Z,98983.41
2024-04-23T17:51:56.824Z,98981.91
2024-04-23T17:54:27.783Z,98976.88
2024-04-23T17:57:08.688Z,98973.69
2024-04-23T17:59:38.268Z,98976.66
2024-04-23T18:02:22.122Z,98974.22
2024-04-23T18:04:58.269Z,98977.03
2024-04-23T18:07:46.273Z,98975.25
2024-04-23T18:10:18.031Z,98974.41
2024-04-23T18:13:09.688Z,98987.22
2024-04-23T18:15:51.021Z,98979.44
2024-04-23T18:18:28.713Z,98987.09
2024-04-23T18:21:01.462Z,98981.25
2024-04-23T18:23:46.325Z,98981.63
2024-04-23T18:26:15.943Z,98968.03
2024-04-23T18:28:55.065Z,98976.50
2024-04-23T18:31:26.412Z,98973.69
2024-04-23T18:33:57.845Z,98971.75
2024-04-23T18:36:32.459Z,98972.75
2024-04-23T18:39:07.645Z,98978.16
2024-04-23T18:41:36.516Z,98967.97
2024-04-23T18:44:09.603Z,98973.84
2024-04-23T18:46:43.396Z,98979.84
2024-04-23T18:49:19.115Z,98977.50
2024-04-23T18:51:54.450Z,98974.94
2024-04-23T18:54:36.011Z,98978.59
2024-04-23T18:57:07.601Z,98987.81
2024-04-23T18:59:40.673Z,98974.09
2024-04-23T19:02:15.836Z,98972.59
2024-04-23T19:04:52.706Z,98974.28
2024-04-23T19:07:21.782Z,98972.75
2024-04-23T19:10:00.466Z,98972.47
2024-04-23T19:12:33.446Z,98963.56
2024-04-23T19:15:12.887Z,98963.78
2024-04-23T19:17:52.574Z,98965.78
2024-04-23T19:20:36.605Z,98965.16
2024-04-23T19:23:08.701Z,98974.94
2024-04-23T19:25:41.805Z,98969.09
2024-04-23T19:28:14.108Z,98963.88
2024-04-23T19:30:41.946Z,98965.78
2024-04-23T19:33:20.743Z,98952.72
2024-04-23T19:35:50.054Z,98947.56
2024-04-23T19:38:33.072Z,98945.19
2024-04-23T19:41:11.728Z,98936.63
2024-04-23T19:43:51.919Z,98937.06
2024-04-23T19:46:26.755Z,98939.63
2024-04-23T19:49:01.437Z,98938.34
2024-04-23T19:51:30.780Z,98937.13
2024-04-23T19:54:05.336Z,98931.25
2024-04-23T19:56:58.188Z,98932.59
2024-04-23T19:59:36.970Z,98935.03
2024-04-23T20:02:18.319Z,98926.06
2024-04-23T20:04:54.072Z,98915.84
2024-04-23T20:07:36.826Z,98923.69
2024-04-23T20:10:11.885Z,98910.53
2024-04-23T20:12:52.707Z,98908.88
2024-04-23T20:15:26.029Z,98905.22
2024-04-23T20:18:13.418Z,98903.94
2024-04-23T20:20:50.343Z,98897.19
2024-04-23T20:23:20.794Z,98885.63
2024-04-23T20:25:54.622Z,98890.81
2024-04-23T20:28:30.531Z,98882.41
2024-04-23T20:31:03.172Z,98875.00
2024-04-23T20:33:37.435Z,98887.19
2024-04-23T20:36:18.428Z,98869.97
2024-04-23T20:38:53.389Z,98874.06
2024-04-23T20:41:31.940Z,98869.53
2024-04-23T20:44:15.755Z,98870.31
2024-04-23T20:46:48.314Z,98860.78
2024-04-23T20:49:29.903Z,98868.53
2024-04-23T20:52:12.576Z,98852.44
2024-04-23T20:54:51.943Z,98867.03
2024-04-23T20:57:24.525Z,98874.91
2024-04-23T21:00:01.938Z,98867.81
2024-04-23T21:05:43.087Z,98866.66
2024-04-23T21:08:25.553Z,98871.81
2024-04-23T21:11:06.126Z,98881.75
2024-04-23T21:13:45.578Z,98874.56
2024-04-23T21:16:26.734Z,98877.94
2024-04-23T21:19:11.229Z,98882.34
2024-04-23T21:21:51.321Z,98871.88
2024-04-23T21:24:23.788Z,98871.88
2024-04-23T21:27:02.716Z,98889.44
2024-04-23T21:29:43.049Z,98872.69
2024-04-23T21:32:21.700Z,98875.72
2024-04-23T21:35:00.393Z,98870.69
2024-04-23T21:37:39.108Z,98868.84
2024-04-23T21:40:19.363Z,98872.16
2024-04-23T21:42:54.413Z,98860.78
2024-04-23T21:45:29.137Z,98856.75
2024-04-23T21:48:09.439Z,98861.22
2024-04-23T21:50:51.731Z,98859.69
2024-04-23T21:53:26.642Z,98862.22
2024-04-23T21:56:02.686Z,98850.63
2024-04-23T21:58:41.023Z,98845.81
2024-04-23T22:01:18.914Z,98839.53
2024-04-23T22:04:11.282Z,98831.72
2024-04-23T22:09:47.230Z,98832.59
2024-04-23T22:12:25.084Z,98817.06
2024-04-23T22:15:03.627Z,98818.19
2024-04-23T22:17:45.315Z,98822.09
2024-04-23T22:20:32.726Z,98812.31
2024-04-23T22:23:12.466Z,98802.78
2024-04-23T22:25:52.855Z,98815.94
2024-04-23T22:28:30.932Z,98819.59
2024-04-23T22:31:11.318Z,98804.38
2024-04-23T22:33:49.230Z,98812.03
2024-04-23T22:36:33.422Z,98798.75
2024-04-23T22:39:13.994Z,98797.53
2024-04-23T22:41:47.535Z,98788.53
2024-04-23T22:44:18.773Z,98790.44
2024-04-23T22:46:50.532Z,98777.91
2024-04-23T22:49:31.064Z,98782.00
2024-04-23T22:52:18.102Z,98781.41
2024-04-23T22:54:56.283Z,98778.13
2024-04-23T22:57:34.930Z,98770.81
2024-04-23T23:00:16.093Z,98792.72
2024-04-23T23:03:00.307Z,98787.19
2024-04-23T23:05:40.517Z,98772.28
2024-04-23T23:08:26.127Z,98779.69
2024-04-23T23:11:05.840Z,98774.88
2024-04-23T23:13:38.940Z,98765.56
2024-04-23T23:16:10.622Z,98765.69
2024-04-23T23:18:42.693Z,98752.53
2024-04-23T23:21:16.150Z,98754.88
2024-04-23T23:23:58.904Z,98752.97
2024-04-23T23:26:32.736Z,98746.53
2024-04-23T23:29:02.665Z,98738.63
2024-04-23T23:31:41.271Z,98737.78
2024-04-23T23:34:22.654Z,98732.59
2024-04-23T23:37:01.591Z,98729.53
2024-04-23T23:39:46.487Z,98743.66
2024-04-23T23:42:16.747Z,98736.69
2024-04-23T23:44:55.839Z,98735.25
2024-04-23T23:47:35.473Z,98737.63
2024-04-23T23:50:08.550Z,98738.34
2024-04-23T23:52:48.066Z,98723.50
2024-04-23T23:55:26.420Z,98714.66
2024-04-23T23:58:02.291Z,98722.91
